Terminal Aerodrome Forecast
Issued by NWS Duluth, MN

Home | Current Version | Previous Version | Text Only | Print | Product List | Glossary On
Versions: 1 2 3 4 5 6 7 8 9 10 11 12 13 14 15 16 17 18 19 20 21 22 23 24 25 26 27 28 29 30 31 32
000
FTUS43 KDLH 050931 AAB
TAFINL
TAF AMD
KINL 050931Z 0510/0606 17005KT P6SM -SHRA VCTS BKN050CB OVC070
      WS015/21040KT
     FM051200 18005KT P6SM VCSH SCT050 BKN250
     FM052100 20006KT 5SM -TSRA BKN040CB
     FM060200 22004KT 4SM RA BR OVC025=

USA.gov is the U.S. government's official web portal to all federal, state and local government web resources and services.